sensor_id;sensor_type;location;lat;lon;timestamp;temperature;humidity
47779;DHT22;33538;48.432;11.350;2022-08-21T00:02:02;19.10;99.90
47779;DHT22;33538;48.432;11.350;2022-08-21T00:04:30;19.10;99.90
47779;DHT22;33538;48.432;11.350;2022-08-21T00:06:59;19.10;99.90
47779;DHT22;33538;48.432;11.350;2022-08-21T00:09:26;19.10;99.90
47779;DHT22;33538;48.432;11.350;2022-08-21T00:11:53;19.00;99.90
47779;DHT22;33538;48.432;11.350;2022-08-21T00:14:21;19.00;99.90
47779;DHT22;33538;48.432;11.350;2022-08-21T00:16:47;19.00;99.90
47779;DHT22;33538;48.432;11.350;2022-08-21T00:19:14;19.00;99.90
47779;DHT22;33538;48.432;11.350;2022-08-21T00:21:41;19.00;99.90
47779;DHT22;33538;48.432;11.350;2022-08-21T00:24:10;19.00;99.90
47779;DHT22;33538;48.432;11.350;2022-08-21T00:26:37;18.90;99.90
47779;DHT22;33538;48.432;11.350;2022-08-21T00:29:04;18.90;99.90
47779;DHT22;33538;48.432;11.350;2022-08-21T00:31:32;18.90;99.90
47779;DHT22;33538;48.432;11.350;2022-08-21T00:34:00;18.90;99.90
47779;DHT22;33538;48.432;11.350;2022-08-21T00:36:27;18.90;99.90
47779;DHT22;33538;48.432;11.350;2022-08-21T00:38:53;18.90;99.90
47779;DHT22;33538;48.432;11.350;2022-08-21T00:41:20;18.90;99.90
47779;DHT22;33538;48.432;11.350;2022-08-21T00:44:05;18.90;99.90
47779;DHT22;33538;48.432;11.350;2022-08-21T00:46:33;18.90;99.90
47779;DHT22;33538;48.432;11.350;2022-08-21T00:49:00;18.80;99.50
47779;DHT22;33538;48.432;11.350;2022-08-21T00:51:32;18.80;99.90
47779;DHT22;33538;48.432;11.350;2022-08-21T00:54:05;18.80;99.90
47779;DHT22;33538;48.432;11.350;2022-08-21T00:56:39;18.80;99.90
47779;DHT22;33538;48.432;11.350;2022-08-21T00:59:09;18.80;99.90
47779;DHT22;33538;48.432;11.350;2022-08-21T01:01:37;18.80;99.90
47779;DHT22;33538;48.432;11.350;2022-08-21T01:04:04;18.70;99.90
47779;DHT22;33538;48.432;11.350;2022-08-21T01:06:31;18.70;99.90
47779;DHT22;33538;48.432;11.350;2022-08-21T01:08:58;18.70;99.90
47779;DHT22;33538;48.432;11.350;2022-08-21T01:11:25;18.70;99.80
47779;DHT22;33538;48.432;11.350;2022-08-21T01:13:52;18.70;99.70
47779;DHT22;33538;48.432;11.350;2022-08-21T01:16:20;18.70;99.50
47779;DHT22;33538;48.432;11.350;2022-08-21T01:18:50;18.60;99.70
47779;DHT22;33538;48.432;11.350;2022-08-21T01:21:20;18.50;99.30
47779;DHT22;33538;48.432;11.350;2022-08-21T01:23:55;18.60;99.50
47779;DHT22;33538;48.432;11.350;2022-08-21T01:26:24;18.60;99.60
47779;DHT22;33538;48.432;11.350;2022-08-21T01:29:13;18.60;99.30
47779;DHT22;33538;48.432;11.350;2022-08-21T01:31:41;18.50;99.20
47779;DHT22;33538;48.432;11.350;2022-08-21T01:34:10;18.50;99.10
47779;DHT22;33538;48.432;11.350;2022-08-21T01:36:38;18.50;99.50
47779;DHT22;33538;48.432;11.350;2022-08-21T01:39:05;18.50;99.40
47779;DHT22;33538;48.432;11.350;2022-08-21T01:41:32;18.50;99.10
47779;DHT22;33538;48.432;11.350;2022-08-21T01:43:59;18.50;98.90
47779;DHT22;33538;48.432;11.350;2022-08-21T01:46:26;18.40;99.50
47779;DHT22;33538;48.432;11.350;2022-08-21T01:48:53;18.40;99.90
47779;DHT22;33538;48.432;11.350;2022-08-21T01:51:20;18.40;99.30
47779;DHT22;33538;48.432;11.350;2022-08-21T01:53:48;18.40;99.20
47779;DHT22;33538;48.432;11.350;2022-08-21T01:56:16;18.40;98.60
47779;DHT22;33538;48.432;11.350;2022-08-21T01:58:47;18.40;99.60
47779;DHT22;33538;48.432;11.350;2022-08-21T02:01:15;18.30;99.30
47779;DHT22;33538;48.432;11.350;2022-08-21T02:03:42;18.30;99.30
47779;DHT22;33538;48.432;11.350;2022-08-21T02:06:13;18.30;98.90
47779;DHT22;33538;48.432;11.350;2022-08-21T02:08:40;18.30;99.00
47779;DHT22;33538;48.432;11.350;2022-08-21T02:11:09;18.30;98.40
47779;DHT22;33538;48.432;11.350;2022-08-21T02:13:36;18.30;98.60
47779;DHT22;33538;48.432;11.350;2022-08-21T02:16:03;18.30;98.70
47779;DHT22;33538;48.432;11.350;2022-08-21T02:18:30;18.10;99.20
47779;DHT22;33538;48.432;11.350;2022-08-21T02:20:56;18.10;99.60
47779;DHT22;33538;48.432;11.350;2022-08-21T02:23:24;18.20;99.30
47779;DHT22;33538;48.432;11.350;2022-08-21T02:25:53;18.20;99.20
47779;DHT22;33538;48.432;11.350;2022-08-21T02:28:21;18.20;98.60
47779;DHT22;33538;48.432;11.350;2022-08-21T02:30:48;18.20;98.10
47779;DHT22;33538;48.432;11.350;2022-08-21T02:33:16;18.20;98.20
47779;DHT22;33538;48.432;11.350;2022-08-21T02:35:44;18.10;98.70
47779;DHT22;33538;48.432;11.350;2022-08-21T02:38:14;18.10;98.90
47779;DHT22;33538;48.432;11.350;2022-08-21T02:40:43;18.10;99.20
47779;DHT22;33538;48.432;11.350;2022-08-21T02:43:17;18.10;98.50
47779;DHT22;33538;48.432;11.350;2022-08-21T02:45:46;18.00;99.20
47779;DHT22;33538;48.432;11.350;2022-08-21T02:48:17;17.90;99.20
47779;DHT22;33538;48.432;11.350;2022-08-21T02:50:46;17.90;98.60
47779;DHT22;33538;48.432;11.350;2022-08-21T02:53:15;18.10;98.70
47779;DHT22;33538;48.432;11.350;2022-08-21T02:55:43;18.10;98.10
47779;DHT22;33538;48.432;11.350;2022-08-21T02:58:11;18.00;98.10
47779;DHT22;33538;48.432;11.350;2022-08-21T03:00:39;18.00;98.30
47779;DHT22;33538;48.432;11.350;2022-08-21T03:03:07;18.00;97.20
47779;DHT22;33538;48.432;11.350;2022-08-21T03:05:35;18.00;98.20
47779;DHT22;33538;48.432;11.350;2022-08-21T03:08:04;17.90;97.90
47779;DHT22;33538;48.432;11.350;2022-08-21T03:10:31;17.90;97.70
47779;DHT22;33538;48.432;11.350;2022-08-21T03:12:58;17.80;98.40
47779;DHT22;33538;48.432;11.350;2022-08-21T03:15:25;17.80;97.60
47779;DHT22;33538;48.432;11.350;2022-08-21T03:17:52;17.90;97.50
47779;DHT22;33538;48.432;11.350;2022-08-21T03:20:26;17.80;97.50
47779;DHT22;33538;48.432;11.350;2022-08-21T03:22:53;17.80;97.70
47779;DHT22;33538;48.432;11.350;2022-08-21T03:25:21;17.80;97.70
47779;DHT22;33538;48.432;11.350;2022-08-21T03:28:07;17.70;98.40
47779;DHT22;33538;48.432;11.350;2022-08-21T03:30:39;17.80;97.50
47779;DHT22;33538;48.432;11.350;2022-08-21T03:33:05;17.80;98.30
47779;DHT22;33538;48.432;11.350;2022-08-21T03:35:34;17.80;97.60
47779;DHT22;33538;48.432;11.350;2022-08-21T03:38:00;17.80;97.10
47779;DHT22;33538;48.432;11.350;2022-08-21T03:40:27;17.80;97.20
47779;DHT22;33538;48.432;11.350;2022-08-21T03:42:54;17.60;98.00
47779;DHT22;33538;48.432;11.350;2022-08-21T03:45:21;17.60;97.00
47779;DHT22;33538;48.432;11.350;2022-08-21T03:47:53;17.50;98.10
47779;DHT22;33538;48.432;11.350;2022-08-21T03:50:20;17.40;98.30
47779;DHT22;33538;48.432;11.350;2022-08-21T03:52:48;17.50;98.10
47779;DHT22;33538;48.432;11.350;2022-08-21T03:55:15;17.50;97.10
47779;DHT22;33538;48.432;11.350;2022-08-21T03:57:42;17.40;97.80
47779;DHT22;33538;48.432;11.350;2022-08-21T04:00:10;17.40;97.90
47779;DHT22;33538;48.432;11.350;2022-08-21T04:02:38;17.50;97.70
47779;DHT22;33538;48.432;11.350;2022-08-21T04:05:06;17.50;97.30
47779;DHT22;33538;48.432;11.350;2022-08-21T04:07:33;17.60;97.20
47779;DHT22;33538;48.432;11.350;2022-08-21T04:10:02;17.50;97.30
47779;DHT22;33538;48.432;11.350;2022-08-21T04:12:29;17.50;97.00
47779;DHT22;33538;48.432;11.350;2022-08-21T04:14:55;17.50;96.40
47779;DHT22;33538;48.432;11.350;2022-08-21T04:17:22;17.40;97.10
47779;DHT22;33538;48.432;11.350;2022-08-21T04:19:49;17.40;97.20
47779;DHT22;33538;48.432;11.350;2022-08-21T04:22:19;17.40;97.20
47779;DHT22;33538;48.432;11.350;2022-08-21T04:24:46;17.40;97.30
47779;DHT22;33538;48.432;11.350;2022-08-21T04:27:14;17.50;96.70
47779;DHT22;33538;48.432;11.350;2022-08-21T04:29:41;17.50;96.70
47779;DHT22;33538;48.432;11.350;2022-08-21T04:32:08;17.50;97.10
47779;DHT22;33538;48.432;11.350;2022-08-21T04:34:34;17.50;96.70
47779;DHT22;33538;48.432;11.350;2022-08-21T04:37:01;17.50;96.70
47779;DHT22;33538;48.432;11.350;2022-08-21T04:39:28;17.50;96.40
47779;DHT22;33538;48.432;11.350;2022-08-21T04:41:55;17.40;97.20
47779;DHT22;33538;48.432;11.350;2022-08-21T04:44:23;17.40;96.80
47779;DHT22;33538;48.432;11.350;2022-08-21T04:46:50;17.40;96.60
47779;DHT22;33538;48.432;11.350;2022-08-21T04:49:17;17.40;97.40
47779;DHT22;33538;48.432;11.350;2022-08-21T04:51:44;17.30;98.40
47779;DHT22;33538;48.432;11.350;2022-08-21T04:54:14;17.30;97.90
47779;DHT22;33538;48.432;11.350;2022-08-21T04:56:44;17.30;98.00
47779;DHT22;33538;48.432;11.350;2022-08-21T04:59:15;17.30;97.90
47779;DHT22;33538;48.432;11.350;2022-08-21T05:01:45;17.40;97.70
47779;DHT22;33538;48.432;11.350;2022-08-21T05:04:15;17.50;97.10
47779;DHT22;33538;48.432;11.350;2022-08-21T05:06:44;17.50;97.20
47779;DHT22;33538;48.432;11.350;2022-08-21T05:09:13;17.40;97.70
47779;DHT22;33538;48.432;11.350;2022-08-21T05:11:41;17.50;98.10
47779;DHT22;33538;48.432;11.350;2022-08-21T05:14:08;17.50;97.70
47779;DHT22;33538;48.432;11.350;2022-08-21T05:16:35;17.50;97.70
47779;DHT22;33538;48.432;11.350;2022-08-21T05:19:04;17.50;98.00
47779;DHT22;33538;48.432;11.350;2022-08-21T05:21:32;17.60;98.10
47779;DHT22;33538;48.432;11.350;2022-08-21T05:23:59;17.60;98.10
47779;DHT22;33538;48.432;11.350;2022-08-21T05:26:26;17.60;98.30
47779;DHT22;33538;48.432;11.350;2022-08-21T05:28:53;17.60;97.70
47779;DHT22;33538;48.432;11.350;2022-08-21T05:31:19;17.60;97.80
47779;DHT22;33538;48.432;11.350;2022-08-21T05:33:46;17.60;98.40
47779;DHT22;33538;48.432;11.350;2022-08-21T05:36:14;17.60;98.10
47779;DHT22;33538;48.432;11.350;2022-08-21T05:38:41;17.60;97.70
47779;DHT22;33538;48.432;11.350;2022-08-21T05:41:08;17.70;97.90
47779;DHT22;33538;48.432;11.350;2022-08-21T05:43:35;17.70;99.10
47779;DHT22;33538;48.432;11.350;2022-08-21T05:46:02;17.70;98.70
47779;DHT22;33538;48.432;11.350;2022-08-21T05:48:29;17.70;98.60
47779;DHT22;33538;48.432;11.350;2022-08-21T05:50:55;17.70;98.90
47779;DHT22;33538;48.432;11.350;2022-08-21T05:53:24;17.80;98.60
47779;DHT22;33538;48.432;11.350;2022-08-21T05:55:51;17.80;98.70
47779;DHT22;33538;48.432;11.350;2022-08-21T05:58:20;17.80;99.10
47779;DHT22;33538;48.432;11.350;2022-08-21T06:00:48;17.80;98.70
47779;DHT22;33538;48.432;11.350;2022-08-21T06:03:17;17.80;99.10
47779;DHT22;33538;48.432;11.350;2022-08-21T06:05:45;17.80;98.70
47779;DHT22;33538;48.432;11.350;2022-08-21T06:08:13;17.80;98.70
47779;DHT22;33538;48.432;11.350;2022-08-21T06:10:41;17.90;98.80
47779;DHT22;33538;48.432;11.350;2022-08-21T06:13:09;17.90;98.80
47779;DHT22;33538;48.432;11.350;2022-08-21T06:15:36;18.00;99.10
47779;DHT22;33538;48.432;11.350;2022-08-21T06:18:03;18.00;99.20
47779;DHT22;33538;48.432;11.350;2022-08-21T06:20:30;18.00;98.90
47779;DHT22;33538;48.432;11.350;2022-08-21T06:22:57;18.00;99.20
47779;DHT22;33538;48.432;11.350;2022-08-21T06:25:24;18.00;99.20
47779;DHT22;33538;48.432;11.350;2022-08-21T06:27:52;18.10;99.80
47779;DHT22;33538;48.432;11.350;2022-08-21T06:30:19;18.10;99.30
47779;DHT22;33538;48.432;11.350;2022-08-21T06:32:46;18.10;98.80
47779;DHT22;33538;48.432;11.350;2022-08-21T06:35:13;18.20;98.80
47779;DHT22;33538;48.432;11.350;2022-08-21T06:37:40;18.30;99.00
47779;DHT22;33538;48.432;11.350;2022-08-21T06:40:08;18.20;99.20
47779;DHT22;33538;48.432;11.350;2022-08-21T06:42:38;18.30;99.10
47779;DHT22;33538;48.432;11.350;2022-08-21T06:45:10;18.30;98.70
47779;DHT22;33538;48.432;11.350;2022-08-21T06:47:37;18.40;98.20
47779;DHT22;33538;48.432;11.350;2022-08-21T06:50:05;18.40;98.50
47779;DHT22;33538;48.432;11.350;2022-08-21T06:52:32;18.50;97.30
47779;DHT22;33538;48.432;11.350;2022-08-21T06:54:59;18.50;97.10
47779;DHT22;33538;48.432;11.350;2022-08-21T06:57:26;18.50;96.80
47779;DHT22;33538;48.432;11.350;2022-08-21T06:59:52;18.50;96.50
47779;DHT22;33538;48.432;11.350;2022-08-21T07:02:21;18.60;96.50
47779;DHT22;33538;48.432;11.350;2022-08-21T07:04:48;18.60;96.30
47779;DHT22;33538;48.432;11.350;2022-08-21T07:07:14;18.70;96.20
47779;DHT22;33538;48.432;11.350;2022-08-21T07:09:41;18.70;96.60
47779;DHT22;33538;48.432;11.350;2022-08-21T07:12:08;18.70;96.10
47779;DHT22;33538;48.432;11.350;2022-08-21T07:14:35;18.80;96.00
47779;DHT22;33538;48.432;11.350;2022-08-21T07:17:03;18.80;95.60
47779;DHT22;33538;48.432;11.350;2022-08-21T07:19:31;18.80;95.80
47779;DHT22;33538;48.432;11.350;2022-08-21T07:22:00;18.90;95.70
47779;DHT22;33538;48.432;11.350;2022-08-21T07:24:28;18.90;95.70
47779;DHT22;33538;48.432;11.350;2022-08-21T07:26:55;18.90;95.70
47779;DHT22;33538;48.432;11.350;2022-08-21T07:29:22;19.00;95.40
47779;DHT22;33538;48.432;11.350;2022-08-21T07:31:48;19.00;95.40
47779;DHT22;33538;48.432;11.350;2022-08-21T07:34:16;19.00;95.60
47779;DHT22;33538;48.432;11.350;2022-08-21T07:36:44;19.00;95.50
47779;DHT22;33538;48.432;11.350;2022-08-21T07:39:11;19.10;95.50
47779;DHT22;33538;48.432;11.350;2022-08-21T07:41:38;19.10;95.50
47779;DHT22;33538;48.432;11.350;2022-08-21T07:44:05;19.10;95.70
47779;DHT22;33538;48.432;11.350;2022-08-21T07:46:32;19.20;95.80
47779;DHT22;33538;48.432;11.350;2022-08-21T07:48:59;19.20;95.90
47779;DHT22;33538;48.432;11.350;2022-08-21T07:51:28;19.20;96.00
47779;DHT22;33538;48.432;11.350;2022-08-21T07:53:57;19.20;95.90
47779;DHT22;33538;48.432;11.350;2022-08-21T07:56:24;19.30;95.90
47779;DHT22;33538;48.432;11.350;2022-08-21T07:58:51;19.20;95.80
47779;DHT22;33538;48.432;11.350;2022-08-21T08:01:19;19.30;96.50
47779;DHT22;33538;48.432;11.350;2022-08-21T08:03:46;19.30;96.30
47779;DHT22;33538;48.432;11.350;2022-08-21T08:06:12;19.30;96.30
47779;DHT22;33538;48.432;11.350;2022-08-21T08:08:40;19.30;97.00
47779;DHT22;33538;48.432;11.350;2022-08-21T08:11:09;19.40;96.70
47779;DHT22;33538;48.432;11.350;2022-08-21T08:13:38;19.40;96.60
47779;DHT22;33538;48.432;11.350;2022-08-21T08:16:06;19.40;96.60
47779;DHT22;33538;48.432;11.350;2022-08-21T08:18:33;19.40;96.60
47779;DHT22;33538;48.432;11.350;2022-08-21T08:21:00;19.40;96.30
47779;DHT22;33538;48.432;11.350;2022-08-21T08:23:26;19.50;96.80
47779;DHT22;33538;48.432;11.350;2022-08-21T08:25:53;19.50;96.60
47779;DHT22;33538;48.432;11.350;2022-08-21T08:28:21;19.50;96.40
47779;DHT22;33538;48.432;11.350;2022-08-21T08:30:48;19.50;96.30
47779;DHT22;33538;48.432;11.350;2022-08-21T08:33:15;19.50;96.50
47779;DHT22;33538;48.432;11.350;2022-08-21T08:35:45;19.60;96.80
47779;DHT22;33538;48.432;11.350;2022-08-21T08:38:14;19.60;96.80
47779;DHT22;33538;48.432;11.350;2022-08-21T08:40:47;19.60;97.20
47779;DHT22;33538;48.432;11.350;2022-08-21T08:43:17;19.60;96.80
47779;DHT22;33538;48.432;11.350;2022-08-21T08:45:49;19.70;97.00
47779;DHT22;33538;48.432;11.350;2022-08-21T08:48:31;19.70;96.70
47779;DHT22;33538;48.432;11.350;2022-08-21T08:51:00;19.70;96.80
47779;DHT22;33538;48.432;11.350;2022-08-21T08:53:32;19.70;96.70
47779;DHT22;33538;48.432;11.350;2022-08-21T08:56:00;19.70;96.70
47779;DHT22;33538;48.432;11.350;2022-08-21T08:58:31;19.80;97.00
47779;DHT22;33538;48.432;11.350;2022-08-21T09:01:00;19.80;97.10
47779;DHT22;33538;48.432;11.350;2022-08-21T09:03:28;19.80;96.80
47779;DHT22;33538;48.432;11.350;2022-08-21T09:05:58;19.90;96.90
47779;DHT22;33538;48.432;11.350;2022-08-21T09:08:42;19.90;97.00
47779;DHT22;33538;48.432;11.350;2022-08-21T09:11:21;19.90;96.90
47779;DHT22;33538;48.432;11.350;2022-08-21T09:13:53;20.00;96.80
47779;DHT22;33538;48.432;11.350;2022-08-21T09:16:30;20.00;96.90
47779;DHT22;33538;48.432;11.350;2022-08-21T09:19:06;20.00;97.10
47779;DHT22;33538;48.432;11.350;2022-08-21T09:21:41;20.00;97.20
47779;DHT22;33538;48.432;11.350;2022-08-21T09:24:23;20.00;96.90
47779;DHT22;33538;48.432;11.350;2022-08-21T09:26:57;20.00;97.00
47779;DHT22;33538;48.432;11.350;2022-08-21T09:29:27;20.10;96.90
47779;DHT22;33538;48.432;11.350;2022-08-21T09:31:57;20.10;97.10
47779;DHT22;33538;48.432;11.350;2022-08-21T09:34:26;20.10;96.80
47779;DHT22;33538;48.432;11.350;2022-08-21T09:36:53;20.20;97.10
47779;DHT22;33538;48.432;11.350;2022-08-21T09:39:24;20.20;97.10
47779;DHT22;33538;48.432;11.350;2022-08-21T09:41:56;20.30;97.20
47779;DHT22;33538;48.432;11.350;2022-08-21T09:44:26;20.30;97.30
47779;DHT22;33538;48.432;11.350;2022-08-21T09:46:53;20.30;97.30
47779;DHT22;33538;48.432;11.350;2022-08-21T09:49:29;20.30;97.30
47779;DHT22;33538;48.432;11.350;2022-08-21T09:51:57;20.30;97.30
47779;DHT22;33538;48.432;11.350;2022-08-21T09:54:29;20.30;97.70
47779;DHT22;33538;48.432;11.350;2022-08-21T09:56:58;20.30;97.80
47779;DHT22;33538;48.432;11.350;2022-08-21T09:59:27;20.30;97.90
47779;DHT22;33538;48.432;11.350;2022-08-21T10:02:14;20.30;98.00
47779;DHT22;33538;48.432;11.350;2022-08-21T10:04:50;20.40;98.20
47779;DHT22;33538;48.432;11.350;2022-08-21T10:07:21;20.40;98.00
47779;DHT22;33538;48.432;11.350;2022-08-21T10:09:58;20.40;98.10
47779;DHT22;33538;48.432;11.350;2022-08-21T10:12:31;20.40;98.30
47779;DHT22;33538;48.432;11.350;2022-08-21T10:15:03;20.40;98.20
47779;DHT22;33538;48.432;11.350;2022-08-21T10:17:47;20.50;98.20
47779;DHT22;33538;48.432;11.350;2022-08-21T10:20:22;20.50;98.30
47779;DHT22;33538;48.432;11.350;2022-08-21T10:22:59;20.60;98.40
47779;DHT22;33538;48.432;11.350;2022-08-21T10:25:33;20.60;98.40
47779;DHT22;33538;48.432;11.350;2022-08-21T10:28:09;20.60;98.50
47779;DHT22;33538;48.432;11.350;2022-08-21T10:30:46;20.70;98.90
47779;DHT22;33538;48.432;11.350;2022-08-21T10:33:23;20.70;99.00
47779;DHT22;33538;48.432;11.350;2022-08-21T10:36:01;20.70;98.90
47779;DHT22;33538;48.432;11.350;2022-08-21T10:38:58;20.70;98.70
47779;DHT22;33538;48.432;11.350;2022-08-21T10:42:03;20.70;98.80
47779;DHT22;33538;48.432;11.350;2022-08-21T10:44:41;20.80;98.90
47779;DHT22;33538;48.432;11.350;2022-08-21T10:47:18;20.80;99.10
47779;DHT22;33538;48.432;11.350;2022-08-21T10:49:54;20.80;99.00
47779;DHT22;33538;48.432;11.350;2022-08-21T10:52:45;20.90;99.00
47779;DHT22;33538;48.432;11.350;2022-08-21T10:55:16;20.90;99.10
47779;DHT22;33538;48.432;11.350;2022-08-21T10:57:47;20.90;99.40
47779;DHT22;33538;48.432;11.350;2022-08-21T11:00:18;20.90;99.40
47779;DHT22;33538;48.432;11.350;2022-08-21T11:02:50;20.90;99.30
47779;DHT22;33538;48.432;11.350;2022-08-21T11:05:23;20.90;99.30
47779;DHT22;33538;48.432;11.350;2022-08-21T11:07:54;20.90;99.40
47779;DHT22;33538;48.432;11.350;2022-08-21T11:10:28;20.90;99.50
47779;DHT22;33538;48.432;11.350;2022-08-21T11:13:03;20.90;99.30
47779;DHT22;33538;48.432;11.350;2022-08-21T11:15:37;20.90;99.50
47779;DHT22;33538;48.432;11.350;2022-08-21T11:18:16;20.90;99.40
47779;DHT22;33538;48.432;11.350;2022-08-21T11:20:49;21.00;99.50
47779;DHT22;33538;48.432;11.350;2022-08-21T11:23:23;21.00;99.50
47779;DHT22;33538;48.432;11.350;2022-08-21T11:25:55;21.00;99.40
47779;DHT22;33538;48.432;11.350;2022-08-21T11:28:28;21.00;99.30
47779;DHT22;33538;48.432;11.350;2022-08-21T11:31:02;21.10;99.30
47779;DHT22;33538;48.432;11.350;2022-08-21T11:33:48;21.10;98.80
47779;DHT22;33538;48.432;11.350;2022-08-21T11:36:26;21.10;98.90
47779;DHT22;33538;48.432;11.350;2022-08-21T11:39:03;21.10;99.30
47779;DHT22;33538;48.432;11.350;2022-08-21T11:41:38;21.10;99.60
47779;DHT22;33538;48.432;11.350;2022-08-21T11:44:09;21.10;99.30
47779;DHT22;33538;48.432;11.350;2022-08-21T11:46:46;21.10;99.40
47779;DHT22;33538;48.432;11.350;2022-08-21T11:49:39;21.10;99.40
47779;DHT22;33538;48.432;11.350;2022-08-21T11:52:14;21.10;99.40
47779;DHT22;33538;48.432;11.350;2022-08-21T11:54:46;21.10;99.40
47779;DHT22;33538;48.432;11.350;2022-08-21T11:57:19;21.20;99.50
47779;DHT22;33538;48.432;11.350;2022-08-21T11:59:55;21.20;99.40
47779;DHT22;33538;48.432;11.350;2022-08-21T12:02:33;21.20;99.30
47779;DHT22;33538;48.432;11.350;2022-08-21T12:05:04;21.20;99.40
47779;DHT22;33538;48.432;11.350;2022-08-21T12:07:37;21.30;99.20
47779;DHT22;33538;48.432;11.350;2022-08-21T12:10:09;21.30;99.30
47779;DHT22;33538;48.432;11.350;2022-08-21T12:12:44;21.30;99.30
47779;DHT22;33538;48.432;11.350;2022-08-21T12:15:26;21.40;98.90
47779;DHT22;33538;48.432;11.350;2022-08-21T12:17:59;21.40;99.00
47779;DHT22;33538;48.432;11.350;2022-08-21T12:20:36;21.40;99.00
47779;DHT22;33538;48.432;11.350;2022-08-21T12:23:15;21.40;98.90
47779;DHT22;33538;48.432;11.350;2022-08-21T12:25:47;21.40;99.00
47779;DHT22;33538;48.432;11.350;2022-08-21T12:28:20;21.50;98.90
47779;DHT22;33538;48.432;11.350;2022-08-21T12:30:48;21.50;99.00
47779;DHT22;33538;48.432;11.350;2022-08-21T12:33:22;21.50;99.10
47779;DHT22;33538;48.432;11.350;2022-08-21T12:35:51;21.50;99.00
47779;DHT22;33538;48.432;11.350;2022-08-21T12:38:22;21.60;99.00
47779;DHT22;33538;48.432;11.350;2022-08-21T12:40:54;21.50;98.90
47779;DHT22;33538;48.432;11.350;2022-08-21T12:43:28;21.60;98.90
47779;DHT22;33538;48.432;11.350;2022-08-21T12:45:55;21.60;98.80
47779;DHT22;33538;48.432;11.350;2022-08-21T12:48:41;21.60;98.80
47779;DHT22;33538;48.432;11.350;2022-08-21T12:51:12;21.70;98.70
47779;DHT22;33538;48.432;11.350;2022-08-21T12:53:44;21.60;98.70
47779;DHT22;33538;48.432;11.350;2022-08-21T12:56:15;21.70;99.10
47779;DHT22;33538;48.432;11.350;2022-08-21T12:58:46;21.70;98.40
47779;DHT22;33538;48.432;11.350;2022-08-21T13:01:19;21.70;98.40
47779;DHT22;33538;48.432;11.350;2022-08-21T13:03:47;21.80;97.40
47779;DHT22;33538;48.432;11.350;2022-08-21T13:06:36;21.80;97.10
47779;DHT22;33538;48.432;11.350;2022-08-21T13:09:06;21.90;96.80
47779;DHT22;33538;48.432;11.350;2022-08-21T13:11:35;21.90;97.30
47779;DHT22;33538;48.432;11.350;2022-08-21T13:14:15;21.80;97.50
47779;DHT22;33538;48.432;11.350;2022-08-21T13:16:45;21.80;97.70
47779;DHT22;33538;48.432;11.350;2022-08-21T13:19:16;21.90;97.80
47779;DHT22;33538;48.432;11.350;2022-08-21T13:21:50;21.80;97.70
47779;DHT22;33538;48.432;11.350;2022-08-21T13:24:19;21.80;97.70
47779;DHT22;33538;48.432;11.350;2022-08-21T13:27:21;21.80;98.20
47779;DHT22;33538;48.432;11.350;2022-08-21T13:29:48;21.90;97.90
47779;DHT22;33538;48.432;11.350;2022-08-21T13:32:22;21.90;97.90
47779;DHT22;33538;48.432;11.350;2022-08-21T13:34:52;21.90;97.70
47779;DHT22;33538;48.432;11.350;2022-08-21T13:37:21;22.00;97.70
47779;DHT22;33538;48.432;11.350;2022-08-21T13:39:50;22.00;97.70
47779;DHT22;33538;48.432;11.350;2022-08-21T13:42:19;22.00;97.70
47779;DHT22;33538;48.432;11.350;2022-08-21T13:44:47;22.00;97.80
47779;DHT22;33538;48.432;11.350;2022-08-21T13:47:16;22.00;97.70
47779;DHT22;33538;48.432;11.350;2022-08-21T13:49:48;22.00;97.60
47779;DHT22;33538;48.432;11.350;2022-08-21T13:52:19;22.00;97.40
47779;DHT22;33538;48.432;11.350;2022-08-21T13:54:54;22.00;97.50
47779;DHT22;33538;48.432;11.350;2022-08-21T13:57:28;22.00;97.40
47779;DHT22;33538;48.432;11.350;2022-08-21T14:00:10;22.10;97.40
47779;DHT22;33538;48.432;11.350;2022-08-21T14:02:39;22.10;97.30
47779;DHT22;33538;48.432;11.350;2022-08-21T14:05:06;22.10;97.30
47779;DHT22;33538;48.432;11.350;2022-08-21T14:07:36;22.10;97.20
47779;DHT22;33538;48.432;11.350;2022-08-21T14:10:06;22.10;97.10
47779;DHT22;33538;48.432;11.350;2022-08-21T14:12:38;22.10;97.00
47779;DHT22;33538;48.432;11.350;2022-08-21T14:15:09;22.10;96.90
47779;DHT22;33538;48.432;11.350;2022-08-21T14:17:40;22.10;96.80
47779;DHT22;33538;48.432;11.350;2022-08-21T14:20:11;22.20;96.80
47779;DHT22;33538;48.432;11.350;2022-08-21T14:22:40;22.20;96.70
47779;DHT22;33538;48.432;11.350;2022-08-21T14:25:11;22.20;96.60
47779;DHT22;33538;48.432;11.350;2022-08-21T14:27:43;22.20;96.00
47779;DHT22;33538;48.432;11.350;2022-08-21T14:30:13;22.50;93.90
47779;DHT22;33538;48.432;11.350;2022-08-21T14:32:42;22.40;93.70
47779;DHT22;33538;48.432;11.350;2022-08-21T14:35:20;22.30;94.80
47779;DHT22;33538;48.432;11.350;2022-08-21T14:37:50;22.40;93.80
47779;DHT22;33538;48.432;11.350;2022-08-21T14:40:18;22.30;93.60
47779;DHT22;33538;48.432;11.350;2022-08-21T14:42:47;22.30;94.50
47779;DHT22;33538;48.432;11.350;2022-08-21T14:45:16;22.30;94.60
47779;DHT22;33538;48.432;11.350;2022-08-21T14:47:49;22.30;94.60
47779;DHT22;33538;48.432;11.350;2022-08-21T14:50:16;22.30;94.10
47779;DHT22;33538;48.432;11.350;2022-08-21T14:52:43;22.30;94.10
47779;DHT22;33538;48.432;11.350;2022-08-21T14:55:10;22.40;93.00
47779;DHT22;33538;48.432;11.350;2022-08-21T14:57:37;22.40;93.50
47779;DHT22;33538;48.432;11.350;2022-08-21T15:00:07;22.40;93.30
47779;DHT22;33538;48.432;11.350;2022-08-21T15:02:36;22.40;93.40
47779;DHT22;33538;48.432;11.350;2022-08-21T15:05:04;22.40;93.30
47779;DHT22;33538;48.432;11.350;2022-08-21T15:07:31;22.50;93.30
47779;DHT22;33538;48.432;11.350;2022-08-21T15:09:58;22.50;93.30
47779;DHT22;33538;48.432;11.350;2022-08-21T15:12:25;22.50;93.20
47779;DHT22;33538;48.432;11.350;2022-08-21T15:14:52;22.50;93.10
47779;DHT22;33538;48.432;11.350;2022-08-21T15:17:20;22.60;93.10
47779;DHT22;33538;48.432;11.350;2022-08-21T15:19:47;22.60;93.00
47779;DHT22;33538;48.432;11.350;2022-08-21T15:22:14;22.60;92.90
47779;DHT22;33538;48.432;11.350;2022-08-21T15:24:53;22.60;92.80
47779;DHT22;33538;48.432;11.350;2022-08-21T15:27:20;22.90;90.30
47779;DHT22;33538;48.432;11.350;2022-08-21T15:29:46;22.80;90.90
47779;DHT22;33538;48.432;11.350;2022-08-21T15:32:20;22.80;90.90
47779;DHT22;33538;48.432;11.350;2022-08-21T15:34:47;22.80;90.90